首页
METAR-TAF:

METAR-TAF

机场 :

礦水城機場

礦水城, 俄罗斯

纬度: 44-14N, 经度: 043-04E, 海拔: 314米

当前天气观测

该预报发布于27分钟前的18:00 UTC
风速6节,风向东转东南
温度 19°C
湿度 64%
气压 1018 hPa
能见度10公里或以上

METAR: URMM 061800Z 11003MPS 9999 NSC 19/12 Q1018 R12/090070 NOSIG RMK QFE735/0981

时间: 22:27 (18:27 UTC)

预报

该预报发布于1小时和27分钟前的17:00 UTC
预报有效从06日的 18点(UTC)到 07日的 18点(UTC)
风速6节,风向东转东南,有时为16节阵风
能见度10公里或以上
成为
从 07日的 04点(UTC)到 07日的 06点(UTC)
风速14节,风向东转东南,有时为27节阵风

TAF: URMM 061700Z 0618/0718 11003G08MPS 9999 NSC TX28/0712Z TN10/0702Z BECMG 0704/0706 11007G14MPS

超过4000个机场的气象观测和天气预报(METAR&TAF报告)。

可查询的气象台以黄色和红色小点在地图上表示。

将鼠标移到小点上方,可查看气象台名称。

然后点击查看天气观测和预报。

如需切换地图:点击带黑十字的绿色按钮放大地图;点击带横线的绿色按钮缩小地图;或者点击绿色箭头查看邻近地区的地图。


METAR-TAF: